Time;durP1;ratioP1;P1;durP2;ratioP2;P2;SDS_P1;SDS_P2;PMS_P1;PMS_P2;Temp;Humidity;BMP_temperature;BMP_pressure;BME280_temperature;BME280_humidity;BME280_pressure;Samples;Min_cycle;Max_cycle;Signal;HPM_P1;HPM_P2
2022/03/06 00:02:33;;;;;;;20.42;12.63;;;0.80;83.60;;;;;;6240819;23;20168;-72
2022/03/06 00:05:19;;;;;;;25.63;14.70;;;0.80;83.50;;;;;;6242742;23;20157;-72
2022/03/06 00:08:06;;;;;;;21.65;13.55;;;0.70;83.80;;;;;;6242909;23;20169;-72
2022/03/06 00:10:52;;;;;;;21.80;13.90;;;0.70;84.30;;;;;;6242427;23;20169;-72
2022/03/06 00:13:37;;;;;;;17.02;12.20;;;0.70;83.50;;;;;;6240210;22;20325;-72
2022/03/06 00:16:24;;;;;;;19.30;12.50;;;0.80;83.60;;;;;;6242915;23;20169;-72
2022/03/06 00:19:10;;;;;;;14.93;11.65;;;0.80;83.00;;;;;;6242466;23;20236;-72
2022/03/06 00:21:56;;;;;;;18.33;12.90;;;0.70;82.90;;;;;;6240475;23;20171;-72
2022/03/06 00:24:42;;;;;;;16.73;11.48;;;0.60;83.70;;;;;;6241764;22;20202;-72
2022/03/06 00:27:28;;;;;;;16.05;11.13;;;0.40;84.10;;;;;;6242585;23;20505;-72
2022/03/06 00:30:13;;;;;;;20.75;11.90;;;0.30;85.60;;;;;;6242336;23;20216;-72
2022/03/06 00:33:00;;;;;;;16.48;10.63;;;0.30;84.70;;;;;;6240219;22;20218;-72
2022/03/06 00:35:46;;;;;;;17.15;10.88;;;0.30;85.30;;;;;;6242913;23;20221;-72
2022/03/06 00:38:32;;;;;;;17.60;11.13;;;0.40;84.50;;;;;;6242615;23;20257;-72
2022/03/06 00:41:18;;;;;;;16.58;11.18;;;0.30;84.60;;;;;;6241548;23;20326;-72
2022/03/06 00:44:04;;;;;;;13.50;9.70;;;0.30;84.30;;;;;;6242091;22;20320;-72
2022/03/06 00:46:49;;;;;;;15.32;10.20;;;0.30;84.60;;;;;;6241677;23;20166;-72
2022/03/06 00:49:36;;;;;;;14.85;10.23;;;0.10;85.40;;;;;;6241444;23;20179;-72
2022/03/06 00:52:22;;;;;;;13.85;9.50;;;0.10;85.90;;;;;;6239222;23;20174;-72
2022/03/06 00:55:08;;;;;;;16.35;10.05;;;-0.10;87.70;;;;;;6242197;23;20186;-72
2022/03/06 00:57:54;;;;;;;15.07;9.93;;;0.10;87.80;;;;;;6243814;23;20165;-71
2022/03/06 01:00:42;;;;;;;16.40;9.55;;;0.20;87.50;;;;;;6243543;23;20169;-72
2022/03/06 01:03:27;;;;;;;16.33;10.80;;;0.30;86.90;;;;;;6241454;22;20201;-73
2022/03/06 01:06:15;;;;;;;15.50;10.40;;;0.30;86.90;;;;;;6243806;23;20166;-72
2022/03/06 01:09:01;;;;;;;15.57;10.85;;;0.40;87.50;;;;;;6242399;23;20172;-72
2022/03/06 01:11:46;;;;;;;14.95;10.30;;;0.60;87.10;;;;;;6239562;23;20569;-72
2022/03/06 01:14:32;;;;;;;20.58;11.63;;;0.60;86.60;;;;;;6240719;22;20204;-72
2022/03/06 01:17:18;;;;;;;16.73;10.85;;;0.50;87.00;;;;;;6241558;23;20169;-72
2022/03/06 01:20:05;;;;;;;19.02;12.15;;;0.50;87.00;;;;;;6240078;23;20167;-71
2022/03/06 01:22:52;;;;;;;17.60;11.40;;;0.50;88.80;;;;;;6240971;22;20246;-72
2022/03/06 01:25:38;;;;;;;16.38;10.25;;;0.40;89.50;;;;;;6243610;23;20166;-72
2022/03/06 01:28:24;;;;;;;16.65;10.43;;;0.40;90.10;;;;;;6242303;23;20691;-72
2022/03/06 01:31:10;;;;;;;16.17;10.73;;;0.50;90.10;;;;;;6240541;23;20778;-72
2022/03/06 01:33:55;;;;;;;16.35;10.75;;;0.50;90.40;;;;;;6241609;22;20208;-72
2022/03/06 01:36:41;;;;;;;16.50;10.20;;;0.50;90.40;;;;;;6242662;23;20172;-72
2022/03/06 01:39:28;;;;;;;16.35;10.48;;;0.60;90.20;;;;;;6242803;23;20499;-72
2022/03/06 01:42:13;;;;;;;17.55;10.82;;;0.60;90.40;;;;;;6239283;23;20213;-72
2022/03/06 01:44:59;;;;;;;16.52;10.85;;;0.70;90.20;;;;;;6241269;22;20246;-72
2022/03/06 01:47:46;;;;;;;21.30;10.23;;;0.60;90.60;;;;;;6242870;23;20173;-72
2022/03/06 01:50:33;;;;;;;16.50;10.95;;;0.60;90.50;;;;;;6240469;23;20245;-72
2022/03/06 01:53:20;;;;;;;15.57;10.35;;;0.60;91.00;;;;;;6241549;22;20209;-72
2022/03/06 01:56:08;;;;;;;12.75;9.65;;;0.70;91.30;;;;;;6242062;23;20659;-72
2022/03/06 01:58:54;;;;;;;14.38;9.40;;;0.80;91.10;;;;;;6242552;23;20657;-72
2022/03/06 02:01:40;;;;;;;18.02;9.77;;;0.90;91.00;;;;;;6240029;23;20632;-72
2022/03/06 02:04:26;;;;;;;15.15;10.25;;;1.10;90.70;;;;;;6240473;22;20225;-72
2022/03/06 02:07:11;;;;;;;16.90;11.27;;;1.20;90.30;;;;;;6241784;23;20521;-72
2022/03/06 02:09:58;;;;;;;17.35;11.00;;;1.20;90.30;;;;;;6239694;23;20169;-73
2022/03/06 02:12:46;;;;;;;15.95;9.25;;;1.00;90.40;;;;;;6241689;22;20624;-71
2022/03/06 02:15:32;;;;;;;15.27;9.68;;;0.80;91.00;;;;;;6242596;23;20518;-72
2022/03/06 02:18:19;;;;;;;15.90;10.35;;;0.90;90.90;;;;;;6242385;23;20189;-73
2022/03/06 02:21:09;;;;;;;16.02;9.55;;;1.00;90.90;;;;;;6239908;23;20217;-72
2022/03/06 02:23:55;;;;;;;16.40;10.60;;;0.90;90.60;;;;;;6241747;22;20592;-71
2022/03/06 02:26:41;;;;;;;18.05;10.82;;;0.90;90.70;;;;;;6243833;23;20210;-71
2022/03/06 02:29:26;;;;;;;15.30;9.88;;;0.80;90.90;;;;;;6243918;23;20167;-73
2022/03/06 02:32:14;;;;;;;13.73;9.18;;;0.80;91.10;;;;;;6242689;23;20250;-72
2022/03/06 02:34:59;;;;;;;14.43;9.50;;;0.80;91.30;;;;;;6242868;22;20273;-72
2022/03/06 02:37:47;;;;;;;17.50;10.13;;;0.80;91.50;;;;;;6245671;22;20204;-72
2022/03/06 02:40:37;;;;;;;14.55;9.43;;;0.80;91.30;;;;;;6241862;23;20646;-72
2022/03/06 02:43:23;;;;;;;14.02;9.05;;;0.90;91.10;;;;;;6244535;23;20233;-72
2022/03/06 02:46:09;;;;;;;12.52;8.52;;;0.80;91.20;;;;;;6245020;23;20163;-71
2022/03/06 02:48:54;;;;;;;14.60;9.80;;;0.90;91.20;;;;;;6212913;23;20170;-71
2022/03/06 02:51:41;;;;;;;13.10;9.10;;;0.90;91.20;;;;;;6212047;23;20494;-72
2022/03/06 02:54:28;;;;;;;13.52;9.05;;;1.00;91.00;;;;;;6212523;23;20292;-72
2022/03/06 02:57:14;;;;;;;13.15;9.05;;;1.00;91.00;;;;;;6213345;23;20623;-72
2022/03/06 03:00:00;;;;;;;16.92;9.68;;;0.80;91.20;;;;;;6211213;23;20221;-72
2022/03/06 03:02:46;;;;;;;13.77;8.65;;;0.70;91.40;;;;;;6212829;23;20194;-72
2022/03/06 03:05:31;;;;;;;12.65;8.43;;;0.70;91.80;;;;;;6213386;23;20501;-72
2022/03/06 03:08:17;;;;;;;11.40;8.25;;;0.70;91.80;;;;;;6211333;23;20209;-72
2022/03/06 03:11:04;;;;;;;13.98;9.38;;;0.70;92.00;;;;;;6210813;23;20288;-72
2022/03/06 03:13:50;;;;;;;13.68;8.50;;;0.80;92.00;;;;;;6213017;23;20495;-72
2022/03/06 03:16:36;;;;;;;11.07;8.02;;;0.90;91.50;;;;;;6212757;23;20543;-72
2022/03/06 03:19:21;;;;;;;17.67;10.32;;;0.90;91.10;;;;;;6211730;23;20283;-73
2022/03/06 03:22:07;;;;;;;12.40;8.80;;;0.70;91.30;;;;;;6212658;23;20167;-72
2022/03/06 03:24:53;;;;;;;13.10;8.13;;;0.60;91.70;;;;;;6212896;23;20291;-72
2022/03/06 03:27:40;;;;;;;16.95;10.38;;;0.60;91.70;;;;;;6213093;23;20246;-72
2022/03/06 03:30:26;;;;;;;16.70;9.15;;;0.60;92.00;;;;;;6211159;23;20642;-72
2022/03/06 03:33:11;;;;;;;13.88;8.80;;;0.70;91.80;;;;;;6212390;23;20171;-72
2022/03/06 03:35:57;;;;;;;14.00;8.32;;;0.70;91.60;;;;;;6212785;23;20662;-72
2022/03/06 03:38:43;;;;;;;11.88;9.10;;;0.60;91.80;;;;;;6212796;23;20193;-72
2022/03/06 03:41:29;;;;;;;14.88;10.10;;;0.50;92.10;;;;;;6212192;23;20212;-73
2022/03/06 03:44:15;;;;;;;13.13;8.63;;;0.40;92.60;;;;;;6212306;23;20687;-72
2022/03/06 03:47:01;;;;;;;17.15;8.00;;;0.50;92.80;;;;;;6212975;23;20212;-72
2022/03/06 03:49:47;;;;;;;13.98;8.77;;;0.50;92.90;;;;;;6210880;23;20170;-72
2022/03/06 03:52:33;;;;;;;13.85;9.30;;;0.70;92.70;;;;;;6212992;23;20252;-72
2022/03/06 03:55:18;;;;;;;12.70;8.30;;;0.90;92.50;;;;;;6212236;23;20190;-72
2022/03/06 03:58:04;;;;;;;13.57;8.63;;;1.00;92.50;;;;;;6212854;23;20206;-73
2022/03/06 04:00:52;;;;;;;20.58;10.52;;;0.90;92.10;;;;;;6211035;23;20170;-72
2022/03/06 04:03:38;;;;;;;12.43;7.82;;;0.90;92.50;;;;;;6212484;23;20246;-72
2022/03/06 04:06:23;;;;;;;13.68;9.32;;;1.00;92.20;;;;;;6212565;23;20199;-72
2022/03/06 04:09:09;;;;;;;13.07;9.05;;;0.90;92.30;;;;;;6211239;23;20231;-72
2022/03/06 04:11:55;;;;;;;15.50;9.10;;;0.80;92.50;;;;;;6210841;23;20211;-72
2022/03/06 04:14:40;;;;;;;13.05;8.30;;;0.80;92.10;;;;;;6212526;23;20655;-72
2022/03/06 04:17:27;;;;;;;12.27;7.55;;;0.90;92.40;;;;;;6212341;23;20278;-72
2022/03/06 04:20:13;;;;;;;15.30;9.27;;;0.80;92.50;;;;;;6211083;23;20305;-72
2022/03/06 04:22:59;;;;;;;14.57;9.25;;;0.80;92.70;;;;;;6212795;23;20217;-71
2022/03/06 04:25:45;;;;;;;13.50;8.25;;;0.70;92.80;;;;;;6212898;23;20181;-72
2022/03/06 04:28:31;;;;;;;14.18;8.68;;;0.70;93.00;;;;;;6212939;23;20219;-72
2022/03/06 04:31:17;;;;;;;12.40;8.40;;;0.70;93.50;;;;;;6210692;23;20170;-71
2022/03/06 04:34:04;;;;;;;11.77;8.30;;;0.70;93.00;;;;;;6212551;23;20253;-72
2022/03/06 04:36:49;;;;;;;12.60;8.70;;;0.70;92.70;;;;;;6212596;23;20257;-72
2022/03/06 04:39:35;;;;;;;11.82;8.13;;;0.70;92.90;;;;;;6211512;23;20176;-72
2022/03/06 04:42:21;;;;;;;12.35;8.65;;;0.70;93.00;;;;;;6212622;23;20224;-72
2022/03/06 04:45:08;;;;;;;13.10;8.32;;;0.70;92.40;;;;;;6211960;23;20182;-72
2022/03/06 04:47:54;;;;;;;13.52;8.40;;;0.70;92.70;;;;;;6211888;23;20566;-72
2022/03/06 04:50:41;;;;;;;13.25;7.93;;;0.70;92.50;;;;;;6210042;23;20171;-72
2022/03/06 04:53:27;;;;;;;13.60;8.52;;;0.60;92.30;;;;;;6211965;23;20279;-72
2022/03/06 04:56:12;;;;;;;17.63;8.60;;;0.50;92.40;;;;;;6211415;23;20238;-72
2022/03/06 04:58:58;;;;;;;14.57;8.80;;;0.60;92.40;;;;;;6212364;23;20206;-72
2022/03/06 05:01:44;;;;;;;14.60;9.60;;;0.40;92.50;;;;;;6210566;23;20171;-72
2022/03/06 05:04:30;;;;;;;12.88;8.30;;;0.30;92.80;;;;;;6212830;23;20166;-72
2022/03/06 05:07:17;;;;;;;14.23;8.40;;;0.20;92.90;;;;;;6211029;23;20205;-72
2022/03/06 05:10:06;;;;;;;12.52;8.05;;;0.20;92.90;;;;;;6208319;23;20196;-72
2022/03/06 05:12:52;;;;;;;14.20;9.35;;;0.10;93.30;;;;;;6211328;23;20173;-72
2022/03/06 05:15:38;;;;;;;14.27;8.43;;;0.10;93.40;;;;;;6211673;23;20674;-72
2022/03/06 05:18:23;;;;;;;14.05;8.55;;;0.10;93.30;;;;;;6212303;23;20326;-72
2022/03/06 05:21:09;;;;;;;12.82;7.95;;;0.10;93.70;;;;;;6209224;23;20244;-72
2022/03/06 05:23:56;;;;;;;13.27;8.88;;;0.00;94.00;;;;;;6212121;23;20173;-71
2022/03/06 05:26:42;;;;;;;13.55;8.32;;;0.10;94.00;;;;;;6211456;23;20266;-72
2022/03/06 05:29:27;;;;;;;15.65;8.98;;;0.20;94.10;;;;;;6210341;23;20257;-72
2022/03/06 05:32:13;;;;;;;14.60;10.23;;;0.30;93.80;;;;;;6211705;23;20170;-72
2022/03/06 05:34:59;;;;;;;10.63;8.48;;;0.30;94.00;;;;;;6211725;23;20641;-72
2022/03/06 05:37:44;;;;;;;12.73;8.45;;;0.30;94.10;;;;;;6212207;23;20212;-72
2022/03/06 05:40:31;;;;;;;18.90;8.40;;;0.30;94.50;;;;;;6209589;23;20541;-72
2022/03/06 05:43:17;;;;;;;13.25;9.00;;;0.40;94.40;;;;;;6211508;23;20171;-72
2022/03/06 05:46:02;;;;;;;10.93;8.30;;;0.40;94.70;;;;;;6212114;23;20164;-72
2022/03/06 05:48:48;;;;;;;13.90;9.02;;;0.30;94.90;;;;;;6211821;23;20251;-72
2022/03/06 05:51:34;;;;;;;15.00;9.80;;;0.30;95.20;;;;;;6210989;23;20179;-72
2022/03/06 05:54:20;;;;;;;12.43;8.35;;;0.40;95.00;;;;;;6211556;23;20172;-72
2022/03/06 05:57:08;;;;;;;15.15;9.00;;;0.40;95.40;;;;;;6211871;23;20221;-72
2022/03/06 05:59:53;;;;;;;13.50;8.80;;;0.50;95.50;;;;;;6211732;23;20170;-72
2022/03/06 06:02:39;;;;;;;15.77;9.48;;;0.60;95.40;;;;;;6214354;23;20220;-72
2022/03/06 06:05:25;;;;;;;13.10;7.80;;;0.60;95.60;;;;;;6213195;23;20208;-72
2022/03/06 06:08:11;;;;;;;14.13;9.48;;;0.40;95.80;;;;;;6212510;23;20534;-73
2022/03/06 06:10:57;;;;;;;15.27;8.82;;;0.40;96.00;;;;;;6211986;23;20297;-72
2022/03/06 06:13:44;;;;;;;12.38;9.32;;;0.60;96.20;;;;;;6213264;23;20503;-72
2022/03/06 06:16:29;;;;;;;11.60;9.05;;;0.70;96.10;;;;;;6213638;23;20254;-72
2022/03/06 06:19:15;;;;;;;15.30;10.43;;;0.80;95.70;;;;;;6211414;23;20215;-72
2022/03/06 06:22:01;;;;;;;16.00;8.65;;;0.90;95.70;;;;;;6213969;23;20499;-72
2022/03/06 06:24:46;;;;;;;13.57;9.50;;;0.90;95.30;;;;;;6213318;23;20195;-72
2022/03/06 06:27:32;;;;;;;12.52;9.10;;;1.00;95.60;;;;;;6213518;23;20211;-73
2022/03/06 06:30:19;;;;;;;14.70;8.70;;;1.00;95.80;;;;;;6211281;23;20169;-72
2022/03/06 06:33:05;;;;;;;13.82;9.98;;;1.00;95.60;;;;;;6212759;23;20178;-73
2022/03/06 06:35:51;;;;;;;12.05;7.82;;;0.90;95.50;;;;;;6212801;23;20189;-72
2022/03/06 06:38:36;;;;;;;10.90;8.35;;;1.00;95.50;;;;;;6213464;23;20695;-72
2022/03/06 06:41:22;;;;;;;16.90;10.02;;;1.00;95.60;;;;;;6214507;23;20253;-72
2022/03/06 06:44:09;;;;;;;12.50;9.32;;;0.90;96.10;;;;;;6213495;23;20174;-72
2022/03/06 06:46:56;;;;;;;13.93;8.57;;;1.00;96.10;;;;;;6213162;23;20256;-73
2022/03/06 06:49:41;;;;;;;13.82;9.15;;;1.10;95.90;;;;;;6212024;23;20617;-72
2022/03/06 06:52:27;;;;;;;14.02;8.90;;;1.20;96.30;;;;;;6213706;23;20207;-73
2022/03/06 06:55:13;;;;;;;13.68;8.80;;;1.30;96.30;;;;;;6210486;23;20187;-72
2022/03/06 06:57:58;;;;;;;11.55;8.65;;;1.30;95.70;;;;;;6211140;23;20750;-73
2022/03/06 07:00:44;;;;;;;14.10;9.50;;;1.40;95.80;;;;;;6212932;23;20214;-72
2022/03/06 07:03:32;;;;;;;15.93;8.85;;;1.50;96.00;;;;;;6212504;23;20302;-72
2022/03/06 07:06:18;;;;;;;13.35;8.88;;;1.50;96.40;;;;;;6213872;23;20168;-73
2022/03/06 07:09:03;;;;;;;14.55;8.93;;;1.50;96.90;;;;;;6209510;23;20627;-72
2022/03/06 07:11:49;;;;;;;14.40;7.90;;;1.60;96.60;;;;;;6212143;23;20166;-72
2022/03/06 07:14:34;;;;;;;12.63;8.43;;;1.70;96.40;;;;;;6211901;23;20234;-72
2022/03/06 07:17:20;;;;;;;12.70;8.50;;;1.80;96.50;;;;;;6213636;23;20198;-72
2022/03/06 07:20:09;;;;;;;14.10;8.35;;;1.80;96.50;;;;;;6211532;23;20422;-72
2022/03/06 07:22:54;;;;;;;11.35;8.27;;;1.90;96.40;;;;;;6213976;23;20186;-72
2022/03/06 07:25:40;;;;;;;20.08;10.45;;;2.00;96.30;;;;;;6213556;23;20215;-72
2022/03/06 07:28:26;;;;;;;12.20;8.85;;;2.10;95.90;;;;;;6210029;23;20211;-72
2022/03/06 07:31:12;;;;;;;14.00;9.15;;;2.20;95.80;;;;;;6212170;23;20169;-72
2022/03/06 07:33:58;;;;;;;15.32;9.90;;;2.30;96.10;;;;;;6213012;23;20279;-72
2022/03/06 07:36:45;;;;;;;15.05;9.65;;;2.40;96.60;;;;;;6213053;23;20678;-72
2022/03/06 07:39:31;;;;;;;15.77;9.50;;;2.50;96.70;;;;;;6210589;23;20172;-72
2022/03/06 07:42:16;;;;;;;13.20;9.00;;;2.60;96.00;;;;;;6213070;23;20297;-73
2022/03/06 07:45:02;;;;;;;14.68;8.27;;;2.70;95.10;;;;;;6212541;23;20867;-72
2022/03/06 07:47:48;;;;;;;12.13;9.07;;;2.80;94.90;;;;;;6211594;23;20533;-72
2022/03/06 07:50:34;;;;;;;14.25;8.35;;;2.90;92.90;;;;;;6212569;23;20383;-72
2022/03/06 07:53:21;;;;;;;12.93;8.82;;;3.00;88.90;;;;;;6212236;23;20215;-72
2022/03/06 07:56:07;;;;;;;18.30;9.50;;;3.10;86.70;;;;;;6212585;23;20665;-72
2022/03/06 07:58:52;;;;;;;11.18;8.75;;;3.20;83.20;;;;;;6210791;23;20716;-72
2022/03/06 08:01:38;;;;;;;14.32;9.85;;;3.40;81.10;;;;;;6212757;23;20174;-72
2022/03/06 08:04:23;;;;;;;12.55;7.68;;;3.50;78.10;;;;;;6212426;23;20220;-73
2022/03/06 08:07:09;;;;;;;14.40;8.63;;;3.60;75.20;;;;;;6210613;23;20212;-74
2022/03/06 08:09:56;;;;;;;11.17;8.33;;;3.70;74.30;;;;;;6209669;23;20403;-73
2022/03/06 08:12:42;;;;;;;16.73;8.93;;;3.90;72.40;;;;;;6212995;23;20515;-73
2022/03/06 08:15:28;;;;;;;12.93;8.37;;;4.00;70.20;;;;;;6212070;23;20756;-73
2022/03/06 08:18:13;;;;;;;10.47;7.47;;;4.20;67.40;;;;;;6210797;23;20737;-73
2022/03/06 08:20:59;;;;;;;11.80;8.03;;;4.30;65.10;;;;;;6212091;23;20382;-72
2022/03/06 08:23:44;;;;;;;12.73;7.73;;;4.40;64.90;;;;;;6212217;23;20861;-73
2022/03/06 08:26:31;;;;;;;16.70;8.90;;;4.40;63.10;;;;;;6212372;23;20862;-72
2022/03/06 08:29:17;;;;;;;14.13;7.93;;;4.60;63.20;;;;;;6210410;23;20381;-72
2022/03/06 08:32:02;;;;;;;11.67;8.10;;;4.80;61.90;;;;;;6212517;23;20807;-72
2022/03/06 08:34:51;;;;;;;12.97;7.40;;;5.00;60.60;;;;;;6211860;23;20358;-73
2022/03/06 08:37:37;;;;;;;14.30;8.63;;;5.10;59.60;;;;;;6210100;23;20514;-72
2022/03/06 08:40:23;;;;;;;12.47;8.00;;;5.20;59.80;;;;;;6236066;22;20480;-71
2022/03/06 08:43:11;;;;;;;11.95;8.43;;;5.30;57.30;;;;;;6242549;23;20947;-71
2022/03/06 08:45:56;;;;;;;11.60;7.13;;;5.50;58.30;;;;;;6241701;23;20168;-71
2022/03/06 08:48:42;;;;;;;10.97;8.20;;;5.60;56.10;;;;;;6240958;22;20416;-71
2022/03/06 08:51:27;;;;;;;14.03;9.10;;;5.70;53.60;;;;;;6244009;23;20380;-72
2022/03/06 08:54:13;;;;;;;13.77;8.43;;;5.80;51.60;;;;;;6242579;23;20483;-72
2022/03/06 08:56:58;;;;;;;11.07;7.70;;;5.90;51.30;;;;;;6241021;23;20430;-71
2022/03/06 08:59:45;;;;;;;10.50;7.40;;;6.00;48.30;;;;;;6241910;22;20397;-71
2022/03/06 09:02:31;;;;;;;13.87;8.23;;;6.10;46.00;;;;;;6242585;23;20379;-72
2022/03/06 09:05:20;;;;;;;12.70;7.67;;;6.20;44.70;;;;;;6241866;23;20422;-72
2022/03/06 09:08:07;;;;;;;9.70;6.97;;;6.20;44.60;;;;;;6240201;23;20679;-71
2022/03/06 09:10:53;;;;;;;12.63;8.07;;;6.30;44.20;;;;;;6242466;22;20798;-71
2022/03/06 09:13:38;;;;;;;12.47;8.40;;;6.40;41.80;;;;;;6241975;23;20378;-71
2022/03/06 09:16:25;;;;;;;14.43;7.90;;;6.40;40.00;;;;;;6241677;23;20473;-70
2022/03/06 09:19:11;;;;;;;11.80;8.10;;;6.50;39.40;;;;;;6241194;22;20388;-71
2022/03/06 09:21:57;;;;;;;10.60;7.57;;;6.60;38.90;;;;;;6243897;23;20375;-70
2022/03/06 09:24:43;;;;;;;10.30;7.80;;;6.70;40.50;;;;;;6243382;23;20481;-72
2022/03/06 09:27:29;;;;;;;11.23;7.20;;;6.90;39.00;;;;;;6240517;23;20873;-71
2022/03/06 09:30:15;;;;;;;10.50;7.50;;;7.10;38.60;;;;;;6243468;22;20917;-72
2022/03/06 09:33:01;;;;;;;12.63;7.63;;;7.20;36.20;;;;;;6241796;23;20379;-71
2022/03/06 09:35:47;;;;;;;12.37;7.60;;;7.20;36.30;;;;;;6241998;23;20372;-71
2022/03/06 09:38:33;;;;;;;8.17;6.20;;;7.30;35.10;;;;;;6240800;22;20371;-72
2022/03/06 09:41:26;;;;;;;11.33;7.40;;;7.30;34.90;;;;;;6242322;23;20728;-72
2022/03/06 09:44:13;;;;;;;10.70;7.57;;;7.40;35.10;;;;;;6242141;23;20922;-71
2022/03/06 09:46:59;;;;;;;10.77;6.63;;;7.40;34.40;;;;;;6240806;23;20378;-72
2022/03/06 09:49:47;;;;;;;11.50;7.60;;;7.50;33.00;;;;;;6241686;22;20465;-72
2022/03/06 09:52:33;;;;;;;12.73;7.43;;;7.40;32.70;;;;;;6241917;23;20370;-72
2022/03/06 09:55:19;;;;;;;10.17;7.00;;;7.50;31.50;;;;;;6243387;23;20928;-71
2022/03/06 09:58:04;;;;;;;8.37;6.53;;;7.50;29.50;;;;;;6240638;23;20342;-71
2022/03/06 10:00:50;;;;;;;9.60;7.23;;;7.60;30.20;;;;;;6242501;22;20456;-71
2022/03/06 10:03:36;;;;;;;13.70;6.93;;;7.60;29.40;;;;;;6241657;23;20430;-72
2022/03/06 10:06:24;;;;;;;10.20;6.53;;;7.70;29.70;;;;;;6239414;23;20407;-71
2022/03/06 10:09:13;;;;;;;11.30;7.67;;;7.70;29.70;;;;;;6241138;22;20835;-72
2022/03/06 10:11:58;;;;;;;10.40;7.10;;;7.80;29.90;;;;;;6243674;23;20398;-72
2022/03/06 10:14:44;;;;;;;11.00;7.90;;;8.00;29.30;;;;;;6242741;23;20804;-72
2022/03/06 10:17:32;;;;;;;10.87;6.67;;;8.00;29.30;;;;;;6241434;23;20426;-72
2022/03/06 10:20:18;;;;;;;10.63;7.50;;;8.10;29.50;;;;;;6243050;22;20935;-72
2022/03/06 10:23:05;;;;;;;12.37;8.17;;;8.30;30.60;;;;;;6243171;23;20379;-72
2022/03/06 10:26:00;;;;;;;12.90;8.27;;;8.40;28.90;;;;;;6241719;23;20354;-70
2022/03/06 10:28:52;;;;;;;10.90;6.20;;;8.50;28.80;;;;;;6243283;22;20862;-72
2022/03/06 10:31:53;;;;;;;11.17;7.50;;;8.70;28.40;;;;;;6243215;23;20376;-71
2022/03/06 10:34:40;;;;;;;11.30;7.43;;;8.80;29.20;;;;;;6241499;23;20428;-71
2022/03/06 10:37:32;;;;;;;14.60;6.93;;;9.00;29.30;;;;;;6240234;23;20466;-70
2022/03/06 10:40:33;;;;;;;9.70;6.87;;;9.20;27.90;;;;;;6242873;22;21075;-70
2022/03/06 10:43:24;;;;;;;12.27;7.57;;;9.30;27.40;;;;;;6242968;23;20882;-71
2022/03/06 10:46:13;;;;;;;11.80;6.60;;;9.30;27.40;;;;;;6241076;23;20371;-70
2022/03/06 10:49:01;;;;;;;12.10;7.57;;;9.60;27.60;;;;;;6243902;22;20428;-70
2022/03/06 10:51:50;;;;;;;8.90;7.17;;;9.80;27.80;;;;;;6243065;23;20384;-72
2022/03/06 10:54:49;;;;;;;10.23;7.07;;;10.00;26.10;;;;;;6242904;23;20715;-71
2022/03/06 10:57:36;;;;;;;11.17;8.07;;;10.20;26.20;;;;;;6240308;23;20418;-72
2022/03/06 11:00:22;;;;;;;12.27;7.83;;;10.20;25.00;;;;;;6244458;22;20447;-73
2022/03/06 11:03:09;;;;;;;10.27;7.33;;;10.00;25.60;;;;;;6244223;23;20354;-72
2022/03/06 11:05:55;;;;;;;10.27;6.70;;;9.80;26.70;;;;;;6242943;23;20371;-71
2022/03/06 11:08:41;;;;;;;13.07;7.13;;;9.70;26.60;;;;;;6243974;22;20347;-72
2022/03/06 11:11:28;;;;;;;10.83;7.63;;;9.70;27.70;;;;;;6244919;23;20432;-71
2022/03/06 11:14:15;;;;;;;11.47;8.00;;;9.80;27.10;;;;;;6244339;23;20532;-72
2022/03/06 11:17:01;;;;;;;10.57;7.80;;;10.00;26.40;;;;;;6242643;23;20754;-71
2022/03/06 11:19:46;;;;;;;12.87;8.47;;;10.00;25.60;;;;;;6244619;22;20462;-72
2022/03/06 11:22:40;;;;;;;11.53;8.03;;;9.80;26.60;;;;;;6245272;23;20397;-71
2022/03/06 11:25:29;;;;;;;9.73;7.10;;;9.60;27.30;;;;;;6242465;23;20495;-71
2022/03/06 11:28:27;;;;;;;11.10;7.57;;;9.40;27.30;;;;;;6244724;23;20367;-71
2022/03/06 11:31:14;;;;;;;9.57;6.83;;;9.40;28.00;;;;;;6244621;23;20776;-72
2022/03/06 11:34:03;;;;;;;18.93;7.30;;;9.50;26.90;;;;;;6244458;23;20441;-71
2022/03/06 11:36:50;;;;;;;12.57;7.87;;;9.50;27.80;;;;;;6242080;23;20427;-72
2022/03/06 11:39:47;;;;;;;13.53;8.17;;;9.40;26.90;;;;;;6244527;22;20442;-72
2022/03/06 11:42:57;;;;;;;10.80;7.83;;;9.30;27.80;;;;;;6244762;23;20384;-72
2022/03/06 11:45:53;;;;;;;12.80;8.13;;;9.60;27.70;;;;;;6235174;22;20425;-72
2022/03/06 11:49:15;;;;;;;9.97;7.10;;;9.80;26.70;;;;;;6244424;22;20375;-72
2022/03/06 11:52:00;;;;;;;10.80;7.50;;;9.80;26.70;;;;;;6244446;23;20376;-72
2022/03/06 11:54:46;;;;;;;12.37;7.10;;;9.90;26.70;;;;;;6242723;23;20421;-71
2022/03/06 11:57:39;;;;;;;11.17;8.23;;;10.10;25.50;;;;;;6243449;23;20601;-72
2022/03/06 12:00:26;;;;;;;9.87;7.40;;;10.30;25.40;;;;;;6244648;22;20453;-72
2022/03/06 12:03:13;;;;;;;10.03;7.70;;;10.40;24.70;;;;;;6243828;23;20841;-72
2022/03/06 12:06:00;;;;;;;10.40;7.80;;;10.20;25.60;;;;;;6242073;23;20353;-72
2022/03/06 12:08:47;;;;;;;8.90;7.00;;;10.30;24.90;;;;;;6244131;22;20759;-72
2022/03/06 12:11:36;;;;;;;8.17;7.00;;;10.50;24.60;;;;;;6244424;23;20813;-72
2022/03/06 12:14:23;;;;;;;8.50;6.90;;;10.50;24.90;;;;;;6242547;23;20370;-72
2022/03/06 12:17:32;;;;;;;13.67;7.70;;;10.60;25.20;;;;;;6243876;23;20402;-71
2022/03/06 12:20:27;;;;;;;9.90;7.87;;;10.70;24.60;;;;;;6244006;22;20915;-72
2022/03/06 12:23:28;;;;;;;8.53;6.97;;;10.80;23.70;;;;;;6243969;23;20371;-71
2022/03/06 12:26:13;;;;;;;9.30;6.97;;;10.90;23.70;;;;;;6242109;23;20381;-71
2022/03/06 12:28:59;;;;;;;9.80;7.07;;;11.00;23.10;;;;;;6244037;22;20381;-71
2022/03/06 12:31:45;;;;;;;8.93;7.00;;;11.10;22.90;;;;;;6244258;23;20689;-72
2022/03/06 12:34:39;;;;;;;8.50;6.87;;;11.00;23.10;;;;;;6242190;23;21103;-72
2022/03/06 12:37:25;;;;;;;8.87;6.87;;;11.10;23.00;;;;;;6244042;23;20435;-72
2022/03/06 12:40:14;;;;;;;9.87;7.10;;;11.20;22.80;;;;;;6243741;22;20431;-71
2022/03/06 12:43:02;;;;;;;7.87;6.07;;;11.30;23.00;;;;;;6244045;23;20398;-71
2022/03/06 12:45:50;;;;;;;13.73;6.43;;;11.30;23.40;;;;;;6241568;23;20358;-71
2022/03/06 12:48:36;;;;;;;9.03;7.07;;;11.50;23.10;;;;;;6244061;22;20385;-71
2022/03/06 12:51:39;;;;;;;8.53;6.63;;;11.80;22.50;;;;;;6243979;23;20426;-72
2022/03/06 12:54:26;;;;;;;9.67;7.33;;;12.20;22.60;;;;;;6241526;23;20347;-71
2022/03/06 12:57:13;;;;;;;9.17;7.20;;;12.20;22.30;;;;;;6243568;23;20398;-72
2022/03/06 12:59:59;;;;;;;10.07;7.17;;;12.30;22.00;;;;;;6243769;22;20382;-72
2022/03/06 13:02:47;;;;;;;8.73;7.30;;;12.30;20.90;;;;;;6243648;23;20350;-71
2022/03/06 13:05:34;;;;;;;12.77;7.03;;;11.50;20.70;;;;;;6241947;23;20419;-72
2022/03/06 13:08:21;;;;;;;12.13;6.90;;;11.30;21.10;;;;;;6241555;23;20417;-71
2022/03/06 13:11:07;;;;;;;10.67;7.50;;;10.80;22.00;;;;;;6243786;23;20884;-71
2022/03/06 13:14:02;;;;;;;9.87;7.23;;;10.80;23.20;;;;;;6241888;23;20350;-71
2022/03/06 13:16:48;;;;;;;9.10;6.97;;;10.80;24.20;;;;;;6243606;23;20347;-71
2022/03/06 13:19:42;;;;;;;10.97;7.37;;;10.90;23.40;;;;;;6243574;22;20453;-72
2022/03/06 13:22:28;;;;;;;9.00;7.47;;;10.90;23.40;;;;;;6243911;23;20681;-72
2022/03/06 13:25:14;;;;;;;10.23;7.67;;;10.90;22.70;;;;;;6240791;23;20381;-72
2022/03/06 13:28:00;;;;;;;9.03;7.57;;;10.70;23.50;;;;;;6243706;23;20708;-72
2022/03/06 13:30:47;;;;;;;9.17;7.40;;;10.80;23.50;;;;;;6243712;22;20708;-72
2022/03/06 13:33:34;;;;;;;8.80;6.80;;;11.10;23.20;;;;;;6242173;23;20351;-71
2022/03/06 13:36:20;;;;;;;9.80;7.13;;;11.30;22.10;;;;;;6243182;23;20821;-71
2022/03/06 13:39:08;;;;;;;9.60;7.00;;;11.60;23.40;;;;;;6243584;22;20718;-72
2022/03/06 13:41:56;;;;;;;9.77;7.60;;;11.70;21.90;;;;;;6243484;23;20476;-72
2022/03/06 13:44:59;;;;;;;11.70;7.80;;;11.40;22.10;;;;;;6241642;23;20367;-72
2022/03/06 13:47:48;;;;;;;11.90;9.20;;;10.90;22.60;;;;;;6243711;23;20637;-72
2022/03/06 13:50:41;;;;;;;10.47;8.30;;;10.50;23.00;;;;;;6243688;22;20430;-72
2022/03/06 13:53:29;;;;;;;10.47;8.57;;;10.30;23.30;;;;;;6242070;23;20401;-71
2022/03/06 13:56:14;;;;;;;12.53;8.07;;;10.20;23.50;;;;;;6243241;23;20704;-71
2022/03/06 13:59:00;;;;;;;9.13;7.47;;;10.50;23.20;;;;;;6243492;22;20416;-72
2022/03/06 14:01:46;;;;;;;17.30;8.43;;;10.70;24.30;;;;;;6243426;23;20766;-71
2022/03/06 14:04:33;;;;;;;10.90;8.57;;;11.20;24.90;;;;;;6240891;23;20675;-73
2022/03/06 14:07:25;;;;;;;10.10;8.17;;;11.50;23.60;;;;;;6240050;23;20342;-71
2022/03/06 14:10:10;;;;;;;11.23;7.83;;;11.50;23.00;;;;;;6243291;22;20394;-71
2022/03/06 14:12:56;;;;;;;11.57;9.17;;;11.40;23.40;;;;;;6243154;23;20789;-71
2022/03/06 14:15:42;;;;;;;10.03;7.40;;;11.10;23.40;;;;;;6242825;23;20416;-71
2022/03/06 14:18:33;;;;;;;9.97;7.83;;;10.60;23.30;;;;;;6243392;23;20752;-72
2022/03/06 14:21:22;;;;;;;10.40;8.37;;;10.20;23.50;;;;;;6244794;23;20842;-71
2022/03/06 14:24:09;;;;;;;9.60;7.80;;;10.10;24.00;;;;;;6243365;23;20378;-72
2022/03/06 14:26:55;;;;;;;9.97;8.60;;;10.20;25.00;;;;;;6245334;23;20375;-71
2022/03/06 14:29:42;;;;;;;10.20;8.73;;;10.60;24.30;;;;;;6244809;22;20385;-71